createdAt,value
2022-09-03T00:01:06.846Z,1.00
2022-09-03T00:02:22.284Z,1.00
2022-09-03T00:03:44.453Z,1.00
2022-09-03T00:05:09.921Z,1.00
2022-09-03T00:06:17.564Z,1.00
2022-09-03T00:07:32.098Z,1.00
2022-09-03T00:08:40.726Z,1.00
2022-09-03T00:09:49.483Z,1.00
2022-09-03T00:11:03.168Z,1.00
2022-09-03T00:12:26.368Z,1.00
2022-09-03T00:13:33.969Z,1.00
2022-09-03T00:14:49.833Z,1.00
2022-09-03T00:15:55.747Z,1.00
2022-09-03T00:17:09.338Z,1.00
2022-09-03T00:18:22.682Z,1.00
2022-09-03T00:19:33.609Z,1.00
2022-09-03T00:20:46.072Z,1.00
2022-09-03T00:22:10.926Z,1.00
2022-09-03T00:23:19.517Z,1.00
2022-09-03T00:24:25.698Z,1.00
2022-09-03T00:25:35.505Z,1.00
2022-09-03T00:26:39.761Z,1.00
2022-09-03T00:27:43.570Z,1.00
2022-09-03T00:28:59.223Z,1.00
2022-09-03T00:30:05.275Z,1.00
2022-09-03T00:31:34.019Z,1.00
2022-09-03T00:33:10.900Z,1.00
2022-09-03T00:34:41.382Z,1.00
2022-09-03T00:35:52.530Z,1.00
2022-09-03T00:36:54.303Z,1.00
2022-09-03T00:37:56.541Z,1.00
2022-09-03T00:38:59.098Z,1.00
2022-09-03T00:40:02.824Z,1.00
2022-09-03T00:41:25.924Z,1.00
2022-09-03T00:42:47.639Z,1.00
2022-09-03T00:44:13.810Z,1.00
2022-09-03T00:45:26.771Z,1.00
2022-09-03T00:46:59.207Z,1.00
2022-09-03T00:48:28.132Z,1.00
2022-09-03T00:49:40.180Z,1.00
2022-09-03T00:51:00.206Z,1.00
2022-09-03T00:52:13.351Z,1.00
2022-09-03T00:53:25.814Z,1.00
2022-09-03T00:54:51.424Z,1.00
2022-09-03T00:56:00.517Z,1.00
2022-09-03T00:57:25.682Z,1.00
2022-09-03T00:58:56.224Z,1.00
2022-09-03T01:00:09.920Z,1.00
2022-09-03T01:01:40.563Z,1.00
2022-09-03T01:03:00.937Z,1.00
2022-09-03T01:04:25.430Z,1.00
2022-09-03T01:05:47.070Z,1.00
2022-09-03T01:07:10.142Z,1.00
2022-09-03T01:08:26.466Z,1.00
2022-09-03T01:09:59.413Z,1.00
2022-09-03T01:11:27.998Z,1.00
2022-09-03T01:12:47.835Z,1.00
2022-09-03T01:13:52.890Z,1.00
2022-09-03T01:15:14.291Z,1.00
2022-09-03T01:16:35.484Z,1.00
2022-09-03T01:18:03.902Z,1.00
2022-09-03T01:19:34.315Z,1.00
2022-09-03T01:20:58.667Z,1.00
2022-09-03T01:22:38.475Z,1.00
2022-09-03T01:24:17.671Z,1.00
2022-09-03T01:25:50.110Z,1.00
2022-09-03T01:27:33.514Z,1.00
2022-09-03T01:29:13.064Z,1.00
2022-09-03T01:30:20.756Z,1.00
2022-09-03T01:31:35.311Z,1.00
2022-09-03T01:32:46.740Z,1.00
2022-09-03T01:34:04.872Z,1.00
2022-09-03T01:35:29.495Z,1.00
2022-09-03T01:36:53.171Z,1.00
2022-09-03T01:37:58.535Z,1.00
2022-09-03T01:39:03.589Z,1.00
2022-09-03T01:40:06.567Z,1.00
2022-09-03T01:41:34.721Z,1.00
2022-09-03T01:43:06.034Z,1.00
2022-09-03T01:44:32.751Z,1.00
2022-09-03T01:45:53.839Z,1.00
2022-09-03T01:47:33.798Z,1.00
2022-09-03T01:48:44.485Z,1.00
2022-09-03T01:49:46.040Z,1.00
2022-09-03T01:51:02.961Z,1.00
2022-09-03T01:52:43.748Z,1.00
2022-09-03T01:54:23.125Z,1.00
2022-09-03T01:55:47.866Z,1.00
2022-09-03T01:57:35.351Z,1.00
2022-09-03T01:58:45.696Z,1.00
2022-09-03T02:00:01.345Z,1.00
2022-09-03T02:01:10.135Z,1.00
2022-09-03T02:02:24.709Z,1.00
2022-09-03T02:03:36.032Z,1.00
2022-09-03T02:04:42.954Z,1.00
2022-09-03T02:05:46.920Z,1.00
2022-09-03T02:06:48.925Z,1.00
2022-09-03T02:08:05.393Z,1.00
2022-09-03T02:09:08.518Z,1.00
2022-09-03T02:10:24.346Z,1.00
2022-09-03T02:11:26.325Z,1.00
2022-09-03T02:12:33.293Z,1.00
2022-09-03T02:13:48.237Z,1.00
2022-09-03T02:14:49.831Z,1.00
2022-09-03T02:15:53.449Z,1.00
2022-09-03T02:16:58.220Z,1.00
2022-09-03T02:18:03.654Z,1.00
2022-09-03T02:19:13.670Z,1.00
2022-09-03T02:20:20.109Z,1.00
2022-09-03T02:21:25.362Z,1.00
2022-09-03T02:22:26.977Z,1.00
2022-09-03T02:23:29.090Z,1.00
2022-09-03T02:24:30.681Z,1.00
2022-09-03T02:25:44.702Z,1.00
2022-09-03T02:26:46.954Z,1.00
2022-09-03T02:27:50.833Z,1.00
2022-09-03T02:28:54.079Z,1.00
2022-09-03T02:29:56.951Z,1.00
2022-09-03T02:30:58.638Z,1.00
2022-09-03T02:32:00.399Z,1.00
2022-09-03T02:33:02.363Z,1.00
2022-09-03T02:34:04.077Z,1.00
2022-09-03T02:35:06.058Z,1.00
2022-09-03T02:36:10.874Z,1.00
2022-09-03T02:37:14.586Z,1.00
2022-09-03T02:38:19.614Z,1.00
2022-09-03T02:39:21.241Z,1.00
2022-09-03T02:40:22.919Z,1.00
2022-09-03T02:41:27.289Z,1.00
2022-09-03T02:42:28.873Z,1.00
2022-09-03T02:43:35.316Z,1.00
2022-09-03T02:44:41.586Z,1.00
2022-09-03T02:45:47.628Z,1.00
2022-09-03T02:47:02.613Z,1.00
2022-09-03T02:48:04.201Z,1.00
2022-09-03T02:49:06.963Z,1.00
2022-09-03T02:50:08.978Z,1.00
2022-09-03T02:51:14.070Z,1.00
2022-09-03T02:52:16.792Z,1.00
2022-09-03T02:53:18.390Z,1.00
2022-09-03T02:54:21.219Z,1.00
2022-09-03T02:55:22.982Z,1.00
2022-09-03T02:56:27.566Z,1.00
2022-09-03T02:57:29.195Z,1.00
2022-09-03T02:58:33.966Z,1.00
2022-09-03T02:59:35.737Z,1.00
2022-09-03T03:00:37.479Z,1.00
2022-09-03T03:01:39.169Z,1.00
2022-09-03T03:02:43.657Z,1.00
2022-09-03T03:03:45.501Z,1.00
2022-09-03T03:04:47.157Z,1.00
2022-09-03T03:05:52.513Z,1.00
2022-09-03T03:06:54.090Z,1.00
2022-09-03T03:07:58.299Z,1.00
2022-09-03T03:09:01.608Z,1.00
2022-09-03T03:10:03.801Z,1.00
2022-09-03T03:11:05.840Z,1.00
2022-09-03T03:12:07.814Z,1.00
2022-09-03T03:13:09.428Z,1.00
2022-09-03T03:14:11.042Z,1.00
2022-09-03T03:15:12.675Z,1.00
2022-09-03T03:16:16.275Z,1.00
2022-09-03T03:17:17.960Z,1.00
2022-09-03T03:18:20.427Z,1.00
2022-09-03T03:19:22.019Z,1.00
2022-09-03T03:20:24.294Z,1.00
2022-09-03T03:21:26.041Z,1.00
2022-09-03T03:22:27.597Z,1.00
2022-09-03T03:23:32.300Z,1.00
2022-09-03T03:24:33.906Z,1.00
2022-09-03T03:25:37.341Z,1.00
2022-09-03T03:26:38.905Z,1.00
2022-09-03T03:27:41.765Z,1.00
2022-09-03T03:28:43.359Z,1.00
2022-09-03T03:29:44.953Z,1.00
2022-09-03T03:30:48.569Z,1.00
2022-09-03T03:31:50.353Z,1.00
2022-09-03T03:32:53.834Z,1.00
2022-09-03T03:34:00.129Z,1.00
2022-09-03T03:35:01.707Z,1.00
2022-09-03T03:36:11.538Z,1.00
2022-09-03T03:37:13.170Z,1.00
2022-09-03T03:38:14.729Z,1.00
2022-09-03T03:39:16.510Z,1.00
2022-09-03T03:40:18.389Z,1.00
2022-09-03T03:41:22.564Z,1.00
2022-09-03T03:42:24.274Z,1.00
2022-09-03T03:43:26.158Z,1.00
2022-09-03T03:44:27.786Z,1.00
2022-09-03T03:45:29.464Z,1.00
2022-09-03T03:46:36.687Z,1.00
2022-09-03T03:47:38.420Z,1.00
2022-09-03T03:48:40.526Z,1.00
2022-09-03T03:49:42.512Z,1.00
2022-09-03T03:50:44.060Z,1.00
2022-09-03T03:51:45.662Z,1.00
2022-09-03T03:52:48.186Z,1.00
2022-09-03T03:53:53.743Z,1.00
2022-09-03T03:54:56.509Z,1.00
2022-09-03T03:56:00.620Z,1.00
2022-09-03T03:57:02.212Z,1.00
2022-09-03T03:58:03.786Z,1.00
2022-09-03T03:59:05.540Z,1.00
2022-09-03T04:00:07.740Z,1.00
2022-09-03T04:01:15.189Z,1.00
2022-09-03T04:02:17.922Z,1.00
2022-09-03T04:03:20.053Z,1.00
2022-09-03T04:04:21.702Z,1.00
2022-09-03T04:05:24.093Z,1.00
2022-09-03T04:06:26.529Z,1.00
2022-09-03T04:07:28.152Z,1.00
2022-09-03T04:08:30.127Z,1.00
2022-09-03T04:09:31.974Z,1.00
2022-09-03T04:10:33.534Z,1.00
2022-09-03T04:11:35.334Z,1.00
2022-09-03T04:12:37.001Z,1.00
2022-09-03T04:13:41.475Z,1.00
2022-09-03T04:14:43.101Z,1.00
2022-09-03T04:15:45.292Z,1.00
2022-09-03T04:16:47.095Z,1.00
2022-09-03T04:17:48.842Z,1.00
2022-09-03T04:18:52.273Z,1.00
2022-09-03T04:19:53.843Z,1.00
2022-09-03T04:21:04.219Z,1.00
2022-09-03T04:22:05.922Z,1.00
2022-09-03T04:23:07.501Z,1.00
2022-09-03T04:24:09.847Z,1.00
2022-09-03T04:25:11.435Z,1.00
2022-09-03T04:26:15.777Z,1.00
2022-09-03T04:27:17.372Z,1.00
2022-09-03T04:28:18.974Z,1.00
2022-09-03T04:29:21.974Z,1.00
2022-09-03T04:30:23.600Z,1.00
2022-09-03T04:31:25.284Z,1.00
2022-09-03T04:32:46.774Z,1.00
2022-09-03T04:33:48.388Z,1.00
2022-09-03T04:34:49.977Z,1.00
2022-09-03T04:35:52.132Z,1.00
2022-09-03T04:36:54.351Z,1.00
2022-09-03T04:37:57.320Z,1.00
2022-09-03T04:39:01.607Z,4.40
2022-09-03T04:40:04.278Z,5.30
2022-09-03T04:41:08.007Z,4.50
2022-09-03T04:42:09.562Z,4.90
2022-09-03T04:43:11.119Z,6.30
2022-09-03T04:44:13.196Z,1.10
2022-09-03T04:45:18.607Z,5.20
2022-09-03T04:46:21.644Z,7.60
2022-09-03T04:47:23.517Z,8.60
2022-09-03T04:48:25.661Z,7.60
2022-09-03T04:49:27.405Z,4.60
2022-09-03T04:50:30.514Z,5.90
2022-09-03T04:51:32.222Z,6.00
2022-09-03T04:52:33.829Z,4.60
2022-09-03T04:53:37.460Z,6.20
2022-09-03T04:54:39.078Z,5.80
2022-09-03T04:55:40.644Z,8.40
2022-09-03T04:56:42.713Z,7.30
2022-09-03T04:57:44.316Z,8.60
2022-09-03T04:58:47.549Z,7.20
2022-09-03T04:59:52.726Z,6.00
2022-09-03T05:00:54.645Z,3.50
2022-09-03T05:01:56.782Z,3.80
2022-09-03T05:03:00.994Z,8.00
2022-09-03T05:04:02.995Z,9.70
2022-09-03T05:05:04.871Z,6.80
2022-09-03T05:06:07.845Z,13.20
2022-09-03T05:07:09.970Z,15.00
2022-09-03T05:08:11.544Z,16.00
2022-09-03T05:09:13.199Z,15.10
2022-09-03T05:10:20.450Z,15.60
2022-09-03T05:11:23.046Z,14.60
2022-09-03T05:12:24.618Z,12.50
2022-09-03T05:13:26.662Z,7.90
2022-09-03T05:14:28.218Z,7.70
2022-09-03T05:15:31.428Z,5.30
2022-09-03T05:16:33.139Z,8.20
2022-09-03T05:17:37.720Z,6.50
2022-09-03T05:18:40.215Z,10.50
2022-09-03T05:19:41.798Z,13.70
2022-09-03T05:20:43.858Z,13.40
2022-09-03T05:21:45.431Z,10.40
2022-09-03T05:22:46.981Z,11.10
2022-09-03T05:23:50.697Z,13.70
2022-09-03T05:24:52.955Z,15.90
2022-09-03T05:25:59.258Z,8.60
2022-09-03T05:27:01.266Z,10.00
2022-09-03T05:28:03.183Z,8.30
2022-09-03T05:29:07.693Z,6.50
2022-09-03T05:30:09.833Z,2.00
2022-09-03T05:31:14.306Z,1.00
2022-09-03T05:32:17.260Z,2.40
2022-09-03T05:33:18.818Z,1.00
2022-09-03T05:34:20.373Z,1.00
2022-09-03T05:35:25.938Z,1.00
2022-09-03T05:36:35.138Z,1.00
2022-09-03T05:37:37.670Z,1.00
2022-09-03T05:38:39.478Z,1.00
2022-09-03T05:39:41.120Z,1.00
2022-09-03T05:40:42.725Z,1.00
2022-09-03T05:41:44.441Z,1.00
2022-09-03T05:42:45.989Z,1.00
2022-09-03T05:43:55.049Z,1.00
2022-09-03T05:44:57.186Z,1.00
2022-09-03T05:46:06.533Z,1.00
2022-09-03T05:47:08.157Z,1.00
2022-09-03T05:48:09.761Z,1.00
2022-09-03T05:49:11.820Z,1.00
2022-09-03T05:50:13.386Z,1.00
2022-09-03T05:51:17.812Z,1.00
2022-09-03T05:52:21.652Z,1.00
2022-09-03T05:53:23.282Z,1.00
2022-09-03T05:54:24.888Z,1.00
2022-09-03T05:55:28.660Z,1.00
2022-09-03T05:56:32.338Z,1.00
2022-09-03T05:57:34.438Z,1.00
2022-09-03T05:58:43.376Z,1.00
2022-09-03T05:59:44.965Z,1.00
2022-09-03T06:00:46.546Z,1.00
2022-09-03T06:01:51.102Z,1.00
2022-09-03T06:02:54.293Z,1.00
2022-09-03T06:04:12.982Z,1.00
2022-09-03T06:05:16.812Z,1.00
2022-09-03T06:06:18.386Z,1.00
2022-09-03T06:07:20.924Z,1.00
2022-09-03T06:08:22.703Z,1.00
2022-09-03T06:09:24.331Z,1.00
2022-09-03T06:10:30.061Z,1.00
2022-09-03T06:11:37.594Z,1.00
2022-09-03T06:12:40.648Z,1.00
2022-09-03T06:13:42.382Z,1.00
2022-09-03T06:14:43.963Z,1.00
2022-09-03T06:15:45.530Z,1.00
2022-09-03T06:16:49.635Z,1.00
2022-09-03T06:17:51.394Z,1.00
2022-09-03T06:18:54.129Z,1.00
2022-09-03T06:19:55.688Z,1.00
2022-09-03T06:21:02.847Z,1.00
2022-09-03T06:22:04.428Z,1.00
2022-09-03T06:23:06.001Z,1.00
2022-09-03T06:24:07.734Z,1.00
2022-09-03T06:25:10.097Z,1.00
2022-09-03T06:26:13.894Z,1.00
2022-09-03T06:27:15.473Z,1.00
2022-09-03T06:28:17.046Z,1.00
2022-09-03T06:29:24.951Z,1.00
2022-09-03T06:30:27.222Z,1.00
2022-09-03T06:31:28.831Z,1.00
2022-09-03T06:32:30.499Z,1.00
2022-09-03T06:33:34.637Z,1.00
2022-09-03T06:34:36.245Z,1.00
2022-09-03T06:35:42.956Z,1.00
2022-09-03T06:36:46.125Z,1.00
2022-09-03T06:37:47.747Z,1.00
2022-09-03T06:38:53.239Z,1.00
2022-09-03T06:39:56.080Z,1.00
2022-09-03T06:41:04.173Z,1.00
2022-09-03T06:42:05.934Z,1.00
2022-09-03T06:43:07.602Z,1.00
2022-09-03T06:44:12.225Z,1.00
2022-09-03T06:45:13.902Z,1.00
2022-09-03T06:46:17.519Z,1.00
2022-09-03T06:47:19.579Z,1.00
2022-09-03T06:48:21.258Z,1.00
2022-09-03T06:49:24.558Z,1.00
2022-09-03T06:50:26.142Z,1.00
2022-09-03T06:51:30.258Z,1.00
2022-09-03T06:52:31.842Z,1.00
2022-09-03T06:53:35.899Z,1.00
2022-09-03T06:54:39.547Z,1.00
2022-09-03T06:55:43.137Z,1.00
2022-09-03T06:56:44.732Z,1.00
2022-09-03T06:57:48.625Z,1.00
2022-09-03T06:58:56.909Z,1.00
2022-09-03T06:59:58.536Z,1.00
2022-09-03T07:01:31.431Z,1.00
2022-09-03T07:02:33.584Z,1.00
2022-09-03T07:03:36.401Z,1.00
2022-09-03T07:04:37.966Z,1.00
2022-09-03T07:05:39.666Z,1.00
2022-09-03T07:06:42.894Z,1.00
2022-09-03T07:07:46.194Z,1.00
2022-09-03T07:08:47.795Z,1.00
2022-09-03T07:09:49.381Z,1.00
2022-09-03T07:10:51.196Z,1.00
2022-09-03T07:11:52.895Z,1.00
2022-09-03T07:12:55.932Z,1.00
2022-09-03T07:13:58.623Z,1.00
2022-09-03T07:15:00.258Z,1.00
2022-09-03T07:16:04.643Z,1.00
2022-09-03T07:17:06.306Z,1.00
2022-09-03T07:18:08.271Z,1.00
2022-09-03T07:19:10.262Z,1.00
2022-09-03T07:20:11.846Z,1.00
2022-09-03T07:21:34.362Z,1.00
2022-09-03T07:22:35.932Z,1.00
2022-09-03T07:23:38.933Z,1.00
2022-09-03T07:24:40.550Z,1.00
2022-09-03T07:25:42.303Z,1.00
2022-09-03T07:26:46.379Z,1.00
2022-09-03T07:27:51.591Z,1.00
2022-09-03T07:28:56.853Z,1.00
2022-09-03T07:29:58.920Z,1.00
2022-09-03T07:31:08.107Z,1.00
2022-09-03T07:32:10.685Z,1.00
2022-09-03T07:33:13.385Z,1.00
2022-09-03T07:34:17.194Z,1.00
2022-09-03T07:35:20.012Z,1.00
2022-09-03T07:36:28.603Z,1.00
2022-09-03T07:37:31.142Z,1.00
2022-09-03T07:38:35.963Z,1.00
2022-09-03T07:39:41.671Z,1.00
2022-09-03T07:40:44.346Z,1.00
2022-09-03T07:41:46.893Z,1.00
2022-09-03T07:42:52.113Z,1.00
2022-09-03T07:43:57.446Z,1.00
2022-09-03T07:45:00.267Z,1.00
2022-09-03T07:46:03.240Z,1.00
2022-09-03T07:47:07.838Z,1.00
2022-09-03T07:48:10.305Z,1.00
2022-09-03T07:49:15.287Z,1.00
2022-09-03T07:50:17.694Z,1.00
2022-09-03T07:51:21.433Z,1.00
2022-09-03T07:52:24.039Z,1.00
2022-09-03T07:53:26.296Z,1.00
2022-09-03T07:54:29.415Z,1.00
2022-09-03T07:55:32.222Z,1.00
2022-09-03T07:56:35.754Z,1.00
2022-09-03T07:57:37.716Z,1.00
2022-09-03T07:58:42.473Z,1.00
2022-09-03T07:59:44.839Z,1.00
2022-09-03T08:00:47.613Z,1.00
2022-09-03T08:01:51.418Z,1.00
2022-09-03T08:02:54.352Z,1.00
2022-09-03T08:04:10.164Z,1.00
2022-09-03T08:06:06.652Z,1.00
2022-09-03T08:07:29.806Z,1.00
2022-09-03T08:09:17.876Z,1.00
2022-09-03T08:10:40.750Z,1.00
2022-09-03T08:16:36.484Z,1.00
2022-09-03T08:18:30.415Z,1.00
2022-09-03T08:20:29.517Z,1.00
2022-09-03T08:22:00.204Z,1.00
2022-09-03T08:23:18.626Z,1.00
2022-09-03T08:25:02.506Z,1.00
2022-09-03T08:26:04.282Z,1.00
2022-09-03T08:27:05.904Z,1.00
2022-09-03T08:28:07.746Z,1.00
2022-09-03T08:29:09.595Z,1.00
2022-09-03T08:30:11.871Z,1.00
2022-09-03T08:31:15.222Z,1.00
2022-09-03T08:32:16.841Z,1.00
2022-09-03T08:33:36.890Z,1.00
2022-09-03T08:34:38.525Z,1.00
2022-09-03T08:35:40.143Z,1.00
2022-09-03T08:36:42.131Z,1.00
2022-09-03T08:37:43.693Z,1.00
2022-09-03T08:38:46.790Z,1.00
2022-09-03T08:39:48.418Z,1.00
2022-09-03T08:40:50.443Z,1.00
2022-09-03T08:42:11.498Z,1.00
2022-09-03T08:43:18.798Z,1.00
2022-09-03T08:44:37.403Z,1.00
2022-09-03T08:45:39.444Z,1.00
2022-09-03T08:46:53.665Z,1.00
2022-09-03T08:48:23.749Z,1.00
2022-09-03T08:49:49.071Z,1.00
2022-09-03T08:50:56.053Z,1.00
2022-09-03T08:52:01.309Z,1.00
2022-09-03T08:53:25.362Z,1.00
2022-09-03T08:54:31.195Z,1.00
2022-09-03T08:55:51.173Z,1.00
2022-09-03T08:56:54.381Z,1.00
2022-09-03T08:58:14.152Z,1.00
2022-09-03T08:59:15.814Z,1.00
2022-09-03T09:00:18.129Z,1.00
2022-09-03T09:01:44.258Z,1.00
2022-09-03T09:03:16.648Z,1.00
2022-09-03T09:04:44.632Z,1.00
2022-09-03T09:06:07.116Z,1.00
2022-09-03T09:07:11.763Z,1.00
2022-09-03T09:08:21.713Z,1.00
2022-09-03T09:09:33.687Z,1.00
2022-09-03T09:11:16.547Z,1.00
2022-09-03T09:12:44.041Z,1.00
2022-09-03T09:14:00.129Z,1.00
2022-09-03T09:15:08.597Z,1.00
2022-09-03T09:16:25.886Z,1.00
2022-09-03T09:17:52.233Z,1.00
2022-09-03T09:19:23.009Z,1.00
2022-09-03T09:20:48.610Z,1.00
2022-09-03T09:21:59.040Z,1.00
2022-09-03T09:23:06.401Z,1.00
2022-09-03T09:24:26.411Z,1.00
2022-09-03T09:25:30.188Z,1.00
2022-09-03T09:26:33.193Z,1.00
2022-09-03T09:28:38.614Z,1.00
2022-09-03T09:29:41.169Z,1.00
2022-09-03T09:30:46.058Z,1.00
2022-09-03T09:31:49.436Z,1.00
2022-09-03T09:32:51.206Z,1.00
2022-09-03T09:33:52.799Z,1.00
2022-09-03T09:34:54.914Z,1.00
2022-09-03T09:35:56.493Z,1.00
2022-09-03T09:36:58.097Z,1.00
2022-09-03T09:38:00.279Z,1.00
2022-09-03T09:39:10.121Z,1.00
2022-09-03T09:40:11.730Z,1.00
2022-09-03T09:41:21.175Z,1.00
2022-09-03T09:42:23.699Z,1.00
2022-09-03T09:43:25.549Z,1.00
2022-09-03T09:44:27.777Z,1.00
2022-09-03T09:45:29.762Z,1.00
2022-09-03T09:46:40.955Z,1.00
2022-09-03T09:47:42.802Z,1.00
2022-09-03T09:48:55.481Z,1.00
2022-09-03T09:50:00.174Z,1.00
2022-09-03T09:51:14.180Z,1.00
2022-09-03T09:52:17.162Z,1.00
2022-09-03T09:53:21.506Z,1.00
2022-09-03T09:54:27.833Z,1.00
2022-09-03T09:55:29.575Z,1.00
2022-09-03T09:56:31.693Z,1.00
2022-09-03T09:57:33.830Z,1.00
2022-09-03T09:58:36.240Z,1.00
2022-09-03T09:59:38.045Z,1.00
2022-09-03T10:00:39.702Z,1.00
2022-09-03T10:01:44.671Z,1.00
2022-09-03T10:11:57.915Z,1.00
2022-09-03T10:42:30.469Z,1.00
2022-09-03T10:44:16.875Z,1.00
2022-09-03T10:45:49.473Z,1.00
2022-09-03T10:47:43.341Z,1.00
2022-09-03T10:53:12.491Z,1.00
2022-09-03T10:54:27.097Z,1.00
2022-09-03T10:55:48.263Z,1.00
2022-09-03T10:57:13.323Z,1.00
2022-09-03T10:58:47.711Z,1.00
2022-09-03T11:00:09.955Z,1.00
2022-09-03T11:01:45.894Z,1.00
2022-09-03T11:03:27.384Z,1.00
2022-09-03T11:04:56.187Z,1.00
2022-09-03T11:06:07.922Z,1.00
2022-09-03T11:07:13.958Z,1.00
2022-09-03T11:08:52.337Z,1.00
2022-09-03T11:10:21.878Z,1.00
2022-09-03T11:11:33.048Z,1.00
2022-09-03T11:12:47.095Z,1.00
2022-09-03T11:13:55.544Z,1.00
2022-09-03T11:15:27.698Z,1.00
2022-09-03T11:16:34.284Z,1.00
2022-09-03T11:17:56.903Z,1.00
2022-09-03T11:19:05.487Z,1.00
2022-09-03T11:20:25.776Z,1.00
2022-09-03T11:21:30.722Z,1.00
2022-09-03T11:22:33.970Z,1.00
2022-09-03T11:23:40.710Z,1.00
2022-09-03T11:24:48.691Z,1.00
2022-09-03T11:25:55.081Z,1.00
2022-09-03T11:27:17.890Z,1.00
2022-09-03T11:29:11.604Z,1.00
2022-09-03T11:30:29.172Z,1.00
2022-09-03T11:31:42.802Z,1.00
2022-09-03T11:33:06.397Z,1.00
2022-09-03T11:34:23.360Z,1.00
2022-09-03T11:35:31.491Z,1.00
2022-09-03T11:36:36.695Z,1.00
2022-09-03T11:37:53.053Z,1.00
2022-09-03T11:38:54.838Z,1.00
2022-09-03T11:40:26.866Z,1.00
2022-09-03T11:41:35.740Z,1.00
2022-09-03T11:42:42.917Z,1.00
2022-09-03T11:43:45.506Z,1.00
2022-09-03T11:44:52.087Z,1.00
2022-09-03T11:46:13.257Z,1.00
2022-09-03T11:47:41.751Z,1.00
2022-09-03T11:48:46.485Z,1.00
2022-09-03T11:49:54.067Z,1.00
2022-09-03T11:50:56.287Z,1.00
2022-09-03T11:52:03.324Z,1.00
2022-09-03T11:53:11.345Z,1.00
2022-09-03T11:54:16.248Z,1.00
2022-09-03T11:55:37.513Z,1.00
2022-09-03T11:56:42.284Z,1.00
2022-09-03T11:57:47.095Z,1.00
2022-09-03T11:59:04.405Z,1.00
2022-09-03T12:00:13.904Z,1.00
2022-09-03T12:01:19.898Z,1.00
2022-09-03T12:02:35.155Z,1.00
2022-09-03T12:03:48.916Z,1.00
2022-09-03T12:05:06.014Z,1.00
2022-09-03T12:06:32.595Z,1.00
2022-09-03T12:08:08.811Z,1.00
2022-09-03T12:09:42.395Z,1.00
2022-09-03T12:10:45.430Z,1.00
2022-09-03T12:11:56.252Z,1.00
2022-09-03T12:13:35.549Z,1.00
2022-09-03T12:14:57.326Z,1.00
2022-09-03T12:16:34.197Z,1.00
2022-09-03T12:18:16.448Z,1.00
2022-09-03T12:19:48.280Z,1.00
2022-09-03T12:20:55.918Z,1.00
2022-09-03T12:22:03.324Z,1.00
2022-09-03T12:23:14.460Z,1.00
2022-09-03T12:24:20.752Z,1.00
2022-09-03T12:25:22.649Z,1.00
2022-09-03T12:26:27.305Z,1.00
2022-09-03T12:27:38.856Z,1.00
2022-09-03T12:28:53.567Z,1.00
2022-09-03T12:30:14.516Z,1.00
2022-09-03T12:31:33.285Z,1.00
2022-09-03T12:32:37.356Z,1.00
2022-09-03T12:33:43.501Z,1.00
2022-09-03T12:34:45.272Z,1.00
2022-09-03T12:35:59.127Z,1.00
2022-09-03T12:37:04.735Z,1.00
2022-09-03T12:38:09.038Z,1.00
2022-09-03T12:39:18.832Z,1.00
2022-09-03T12:40:26.656Z,1.00
2022-09-03T12:41:38.397Z,1.00
2022-09-03T12:42:40.660Z,1.00
2022-09-03T12:44:03.057Z,1.00
2022-09-03T12:47:35.537Z,1.00
2022-09-03T12:49:29.996Z,1.00
2022-09-03T12:50:49.357Z,1.00
2022-09-03T12:54:29.789Z,1.00
2022-09-03T12:56:11.006Z,1.00
2022-09-03T12:59:41.012Z,1.00
2022-09-03T13:01:03.076Z,1.00
2022-09-03T13:02:21.060Z,1.00
2022-09-03T13:04:20.142Z,1.00
2022-09-03T13:05:28.901Z,1.00
2022-09-03T13:06:40.179Z,1.00
2022-09-03T13:07:59.483Z,1.00
2022-09-03T13:09:12.866Z,1.00
2022-09-03T13:10:44.457Z,1.00
2022-09-03T13:11:46.459Z,1.00
2022-09-03T13:12:53.563Z,1.00
2022-09-03T13:14:07.264Z,1.00
2022-09-03T13:15:19.805Z,1.00
2022-09-03T13:16:21.951Z,1.00
2022-09-03T13:18:00.765Z,1.00
2022-09-03T13:19:07.589Z,1.00
2022-09-03T13:20:21.811Z,1.00
2022-09-03T13:22:09.925Z,1.00
2022-09-03T13:23:37.415Z,1.00
2022-09-03T13:25:15.003Z,1.00
2022-09-03T13:26:50.213Z,1.00
2022-09-03T13:27:59.943Z,1.00
2022-09-03T13:29:27.092Z,1.00
2022-09-03T13:30:53.496Z,1.00
2022-09-03T13:32:11.084Z,1.00
2022-09-03T13:35:19.182Z,1.00
2022-09-03T13:36:29.259Z,1.00
2022-09-03T13:37:40.500Z,1.00
2022-09-03T13:38:53.325Z,1.00
2022-09-03T13:40:08.754Z,1.00
2022-09-03T13:41:35.487Z,1.00
2022-09-03T13:42:53.337Z,1.00
2022-09-03T13:44:25.534Z,1.00
2022-09-03T13:45:42.469Z,1.00
2022-09-03T13:47:08.031Z,1.00
2022-09-03T13:49:00.899Z,1.00
2022-09-03T13:51:12.003Z,1.00
2022-09-03T13:53:04.636Z,1.00
2022-09-03T13:54:53.471Z,1.00
2022-09-03T13:59:06.543Z,1.00
2022-09-03T14:01:38.944Z,1.00
2022-09-03T14:06:10.742Z,1.00
2022-09-03T14:16:49.085Z,1.00
2022-09-03T14:18:33.993Z,1.00
2022-09-03T14:20:30.770Z,1.00
2022-09-03T14:23:07.131Z,1.00
2022-09-03T14:33:34.988Z,1.00
2022-09-03T14:34:55.693Z,1.00
2022-09-03T14:36:28.367Z,1.00
2022-09-03T14:38:02.880Z,1.00
2022-09-03T14:39:32.649Z,1.00
2022-09-03T14:40:47.439Z,1.00
2022-09-03T14:42:07.723Z,1.00
2022-09-03T14:43:47.254Z,1.00
2022-09-03T14:45:02.312Z,1.00
2022-09-03T14:46:25.909Z,1.00
2022-09-03T14:47:47.387Z,1.00
2022-09-03T14:49:26.618Z,1.00
2022-09-03T14:50:56.726Z,1.00
2022-09-03T14:52:20.184Z,1.00
2022-09-03T14:53:49.581Z,1.00
2022-09-03T14:55:18.966Z,1.00
2022-09-03T14:56:39.775Z,1.00
2022-09-03T14:58:09.890Z,1.00
2022-09-03T14:59:23.708Z,1.00
2022-09-03T15:00:52.834Z,1.00
2022-09-03T15:02:29.665Z,1.00
2022-09-03T15:04:00.086Z,1.00
2022-09-03T15:05:31.255Z,1.00
2022-09-03T15:06:49.579Z,1.00
2022-09-03T15:07:59.781Z,1.00
2022-09-03T15:09:21.742Z,1.00
2022-09-03T15:10:55.878Z,1.00
2022-09-03T15:12:08.469Z,1.00
2022-09-03T15:13:16.888Z,1.00
2022-09-03T15:14:34.875Z,1.00
2022-09-03T15:15:52.226Z,1.00
2022-09-03T15:17:00.671Z,1.00
2022-09-03T15:18:42.233Z,1.00
2022-09-03T15:19:53.080Z,1.00
2022-09-03T15:21:03.758Z,1.00
2022-09-03T15:22:37.005Z,1.00
2022-09-03T15:24:06.284Z,1.00
2022-09-03T15:25:13.607Z,1.00
2022-09-03T15:26:36.845Z,1.00
2022-09-03T15:27:49.040Z,1.00
2022-09-03T15:29:09.107Z,1.00
2022-09-03T15:30:20.044Z,1.00
2022-09-03T15:31:39.047Z,1.00
2022-09-03T15:32:48.522Z,1.00
2022-09-03T15:34:20.062Z,1.00
2022-09-03T15:35:41.303Z,1.00
2022-09-03T15:36:51.624Z,1.00
2022-09-03T15:37:57.731Z,1.00
2022-09-03T15:39:05.669Z,1.00
2022-09-03T15:40:23.488Z,1.00
2022-09-03T15:41:33.200Z,1.00
2022-09-03T15:42:37.231Z,1.00
2022-09-03T15:43:39.945Z,1.00
2022-09-03T15:44:52.837Z,1.00
2022-09-03T15:46:10.711Z,1.00
2022-09-03T15:47:48.377Z,1.00
2022-09-03T15:49:13.027Z,1.00
2022-09-03T15:50:37.559Z,1.00
2022-09-03T15:52:20.235Z,1.00
2022-09-03T15:53:56.928Z,1.00
2022-09-03T15:55:03.252Z,1.00
2022-09-03T15:56:19.636Z,1.00
2022-09-03T15:58:08.506Z,1.00
2022-09-03T15:59:45.967Z,1.00
2022-09-03T16:00:53.670Z,1.00
2022-09-03T16:02:10.860Z,1.00
2022-09-03T16:03:23.676Z,1.00
2022-09-03T16:04:48.898Z,1.00
2022-09-03T16:06:02.243Z,1.00
2022-09-03T16:07:31.886Z,1.00
2022-09-03T16:08:52.063Z,1.00
2022-09-03T16:10:24.252Z,1.00
2022-09-03T16:11:53.949Z,1.00
2022-09-03T16:13:26.341Z,1.00
2022-09-03T16:14:38.163Z,1.00
2022-09-03T16:15:51.827Z,1.00
2022-09-03T16:17:02.645Z,1.00
2022-09-03T16:18:19.657Z,1.00
2022-09-03T16:19:30.304Z,1.00
2022-09-03T16:20:35.390Z,1.00
2022-09-03T16:21:51.376Z,1.00
2022-09-03T16:23:05.661Z,1.00
2022-09-03T16:24:18.958Z,1.00
2022-09-03T16:25:26.415Z,1.00
2022-09-03T16:26:39.240Z,1.00
2022-09-03T16:28:07.660Z,1.00
2022-09-03T16:29:16.650Z,1.00
2022-09-03T16:30:46.017Z,1.00
2022-09-03T16:31:47.849Z,1.00
2022-09-03T16:33:24.425Z,1.00
2022-09-03T16:34:47.268Z,1.00
2022-09-03T16:36:15.150Z,1.00
2022-09-03T16:37:35.070Z,1.00
2022-09-03T16:39:24.712Z,1.00
2022-09-03T16:40:36.780Z,1.00
2022-09-03T16:42:03.958Z,1.00
2022-09-03T16:43:39.510Z,1.00
2022-09-03T16:44:50.547Z,1.00
2022-09-03T16:46:00.995Z,1.00
2022-09-03T16:47:10.258Z,1.00
2022-09-03T16:48:22.835Z,1.00
2022-09-03T16:49:58.462Z,1.00
2022-09-03T16:51:14.876Z,1.00
2022-09-03T16:52:53.047Z,1.00
2022-09-03T16:54:16.869Z,1.00
2022-09-03T16:55:50.103Z,1.00
2022-09-03T16:57:18.908Z,1.00
2022-09-03T16:58:49.193Z,1.00
2022-09-03T17:00:08.406Z,1.00
2022-09-03T17:01:28.964Z,1.00
2022-09-03T17:02:52.791Z,1.00
2022-09-03T17:04:32.005Z,1.00
2022-09-03T17:06:05.125Z,1.00
2022-09-03T17:07:12.606Z,1.00
2022-09-03T17:08:20.030Z,1.00
2022-09-03T17:09:39.660Z,1.00
2022-09-03T17:10:59.900Z,1.00
2022-09-03T17:12:18.987Z,1.00
2022-09-03T17:13:57.052Z,1.00
2022-09-03T17:15:24.075Z,1.00
2022-09-03T17:17:01.711Z,1.00
2022-09-03T17:18:09.837Z,1.00
2022-09-03T17:19:26.254Z,1.00
2022-09-03T17:20:49.767Z,1.00
2022-09-03T17:22:17.771Z,1.00